Time;durP1;ratioP1;P1;durP2;ratioP2;P2;SDS_P1;SDS_P2;PMS_P1;PMS_P2;Temp;Humidity;BMP_temperature;BMP_pressure;BME280_temperature;BME280_humidity;BME280_pressure;Samples;Min_cycle;Max_cycle;Signal;HPM_P1;HPM_P2
2023/01/24 00:01:21;;;;;;;24.73;14.93;;;1.60;99.90;;;;;;4771161;30;20231;-82
2023/01/24 00:03:47;;;;;;;23.60;14.13;;;1.60;99.90;;;;;;4770780;30;20211;-80
2023/01/24 00:06:15;;;;;;;24.43;14.30;;;1.60;99.90;;;;;;4769781;30;20212;-79
2023/01/24 00:08:41;;;;;;;23.20;15.10;;;1.60;99.90;;;;;;4771091;30;20510;-80
2023/01/24 00:11:10;;;;;;;23.63;14.13;;;1.60;99.90;;;;;;4770986;30;20199;-80
2023/01/24 00:13:37;;;;;;;25.93;15.57;;;1.60;99.90;;;;;;4770425;30;20262;-82
2023/01/24 00:16:28;;;;;;;22.37;13.77;;;1.60;99.90;;;;;;4770706;30;20176;-79
2023/01/24 00:18:54;;;;;;;23.53;14.30;;;1.70;99.90;;;;;;4770473;30;20204;-80
2023/01/24 00:21:22;;;;;;;22.63;13.80;;;1.60;99.90;;;;;;4770856;30;20187;-79
2023/01/24 00:23:51;;;;;;;23.80;13.67;;;1.60;99.90;;;;;;4770598;30;20187;-79
2023/01/24 00:26:18;;;;;;;23.63;14.13;;;1.60;99.90;;;;;;4770821;30;20179;-82
2023/01/24 00:28:44;;;;;;;23.97;13.43;;;1.60;99.90;;;;;;4770403;30;20533;-80
2023/01/24 00:31:11;;;;;;;23.00;13.53;;;1.60;99.90;;;;;;4769465;30;20184;-83
2023/01/24 00:33:37;;;;;;;23.43;13.83;;;1.60;99.90;;;;;;4770346;30;20200;-79
2023/01/24 00:36:03;;;;;;;23.10;13.57;;;1.60;99.90;;;;;;4770508;30;20235;-81
2023/01/24 00:38:30;;;;;;;21.83;13.23;;;1.60;99.90;;;;;;4770712;30;20602;-80
2023/01/24 00:40:56;;;;;;;21.43;13.60;;;1.60;99.90;;;;;;4770695;30;20269;-80
2023/01/24 00:43:22;;;;;;;23.63;14.37;;;1.60;99.90;;;;;;4770165;30;20861;-79
2023/01/24 00:45:48;;;;;;;22.50;14.03;;;1.60;99.90;;;;;;4770536;30;20180;-80
2023/01/24 00:48:14;;;;;;;22.87;14.20;;;1.60;99.90;;;;;;4770551;30;20191;-79
2023/01/24 00:50:41;;;;;;;22.90;13.23;;;1.50;99.90;;;;;;4770544;30;20570;-81
2023/01/24 00:53:06;;;;;;;25.30;14.00;;;1.60;99.90;;;;;;4770362;30;20267;-80
2023/01/24 00:55:32;;;;;;;23.03;13.77;;;1.60;99.90;;;;;;4770501;30;20319;-84
2023/01/24 00:57:58;;;;;;;22.57;13.43;;;1.60;99.90;;;;;;4774071;30;20192;-86
2023/01/24 01:00:24;;;;;;;24.70;14.57;;;1.60;99.90;;;;;;4774278;30;20250;-86
2023/01/24 01:02:50;;;;;;;26.13;14.93;;;1.60;99.90;;;;;;4774350;30;20218;-85
2023/01/24 01:05:17;;;;;;;21.80;13.57;;;1.60;99.90;;;;;;4773334;30;20227;-86
2023/01/24 01:07:43;;;;;;;26.60;13.67;;;1.60;99.90;;;;;;4774277;30;20188;-86
2023/01/24 01:10:09;;;;;;;22.00;13.37;;;1.60;99.90;;;;;;4773423;30;20184;-83
2023/01/24 01:12:35;;;;;;;22.17;13.67;;;1.60;99.90;;;;;;4773965;30;20184;-86
2023/01/24 01:15:02;;;;;;;22.23;13.13;;;1.60;99.90;;;;;;4773347;30;20220;-87
2023/01/24 01:17:28;;;;;;;22.87;13.67;;;1.60;99.90;;;;;;4774578;30;20258;-86
2023/01/24 01:19:54;;;;;;;23.23;13.63;;;1.60;99.90;;;;;;4774267;30;20270;-87
2023/01/24 01:22:21;;;;;;;24.90;14.00;;;1.50;99.90;;;;;;4774484;30;20191;-87
2023/01/24 01:24:47;;;;;;;26.27;13.23;;;1.60;99.90;;;;;;4774403;30;20188;-86
2023/01/24 01:27:13;;;;;;;21.10;12.90;;;1.50;99.90;;;;;;4774402;30;20180;-86
2023/01/24 01:29:39;;;;;;;20.90;12.60;;;1.50;99.90;;;;;;4774067;30;20184;-80
2023/01/24 01:32:05;;;;;;;23.43;13.40;;;1.60;99.90;;;;;;4773161;30;20188;-79
2023/01/24 01:34:30;;;;;;;23.87;12.93;;;1.50;99.90;;;;;;4773984;30;20673;-87
2023/01/24 01:36:56;;;;;;;22.37;13.20;;;1.60;99.90;;;;;;4773168;30;20298;-86
2023/01/24 01:39:22;;;;;;;23.87;13.00;;;1.60;99.90;;;;;;4774093;30;20599;-86
2023/01/24 01:41:47;;;;;;;21.10;12.83;;;1.60;99.90;;;;;;4774269;30;20219;-87
2023/01/24 01:44:40;;;;;;;21.77;12.57;;;1.50;99.90;;;;;;4773596;30;20632;-86
2023/01/24 01:47:25;;;;;;;19.90;12.00;;;1.60;99.90;;;;;;4774237;30;20184;-87
2023/01/24 01:49:57;;;;;;;19.97;12.40;;;1.60;99.90;;;;;;4774241;30;20195;-86
2023/01/24 01:52:25;;;;;;;24.60;11.63;;;1.60;99.90;;;;;;4773998;30;20187;-86
2023/01/24 01:54:59;;;;;;;20.83;12.17;;;1.50;99.90;;;;;;4773833;30;20215;-87
2023/01/24 01:57:29;;;;;;;18.00;10.80;;;1.50;99.90;;;;;;4774108;30;20521;-87
2023/01/24 02:00:09;;;;;;;18.77;12.13;;;1.50;99.90;;;;;;4773786;30;20635;-87
2023/01/24 02:02:37;;;;;;;19.53;11.90;;;1.50;99.90;;;;;;4772756;30;20195;-87
2023/01/24 02:05:07;;;;;;;22.30;12.47;;;1.60;99.90;;;;;;4774398;30;20192;-85
2023/01/24 02:07:46;;;;;;;21.03;12.67;;;1.60;99.90;;;;;;4772334;30;20187;-80
2023/01/24 02:10:12;;;;;;;19.80;12.37;;;1.60;99.90;;;;;;4771813;30;20210;-81
2023/01/24 02:12:41;;;;;;;18.13;11.80;;;1.60;99.90;;;;;;4772571;30;20265;-81
2023/01/24 02:17:57;;;;;;;18.80;11.53;;;1.50;99.90;;;;;;4773149;30;20679;-80
2023/01/24 02:20:37;;;;;;;18.73;11.53;;;1.50;99.90;;;;;;4772978;30;20199;-80
2023/01/24 02:23:21;;;;;;;23.00;12.47;;;1.50;99.90;;;;;;4771499;30;20179;-80
2023/01/24 02:26:10;;;;;;;19.07;11.67;;;1.50;99.90;;;;;;4772854;30;20199;-80
2023/01/24 02:28:39;;;;;;;19.60;11.50;;;1.50;99.90;;;;;;4772490;30;20176;-82
2023/01/24 02:31:05;;;;;;;18.97;11.20;;;1.50;99.90;;;;;;4771292;30;20616;-81
2023/01/24 02:33:32;;;;;;;21.20;11.83;;;1.50;99.90;;;;;;4771298;30;20199;-86
2023/01/24 02:36:30;;;;;;;19.63;11.00;;;1.60;99.90;;;;;;4772515;30;20232;-80
2023/01/24 02:39:06;;;;;;;18.23;11.07;;;1.60;99.90;;;;;;4772533;30;20176;-86
2023/01/24 02:42:00;;;;;;;17.03;11.07;;;1.60;99.90;;;;;;4772669;30;20690;-80
2023/01/24 02:44:51;;;;;;;20.47;11.60;;;1.60;99.90;;;;;;4768716;30;20200;-85
2023/01/24 02:47:17;;;;;;;21.13;11.63;;;1.50;99.90;;;;;;4772514;30;20176;-79
2023/01/24 02:49:43;;;;;;;19.27;11.63;;;1.60;99.90;;;;;;4771303;30;20195;-79
2023/01/24 02:54:53;;;;;;;19.53;11.63;;;1.60;99.90;;;;;;4772225;30;20281;-81
2023/01/24 03:00:06;;;;;;;17.23;10.67;;;1.60;99.90;;;;;;4771916;30;20715;-81
2023/01/24 03:02:32;;;;;;;18.27;11.20;;;1.60;99.90;;;;;;4770693;30;20184;-81
2023/01/24 03:04:58;;;;;;;18.80;10.87;;;1.60;99.90;;;;;;4772092;30;20184;-80
2023/01/24 03:07:24;;;;;;;16.43;10.67;;;1.60;99.90;;;;;;4770687;30;20191;-80
2023/01/24 03:09:49;;;;;;;17.57;10.77;;;1.60;99.90;;;;;;4771789;30;20211;-80
2023/01/24 03:34:45;;;;;;;13.53;8.67;;;1.60;99.90;;;;;;4771145;30;20574;-80
2023/01/24 03:37:12;;;;;;;13.37;8.73;;;1.60;99.90;;;;;;4771168;30;20288;-85
2023/01/24 03:39:57;;;;;;;14.17;9.43;;;1.60;99.90;;;;;;5144080;24;20214;-79
2023/01/24 03:42:23;;;;;;;14.10;8.90;;;1.60;99.90;;;;;;4752986;30;20216;-79
2023/01/24 03:44:48;;;;;;;13.07;8.50;;;1.60;99.90;;;;;;4753713;30;20628;-81
2023/01/24 03:47:14;;;;;;;12.70;7.43;;;1.60;99.90;;;;;;4767157;30;20204;-80
2023/01/24 03:52:29;;;;;;;10.87;6.70;;;1.60;99.90;;;;;;4753383;30;20176;-79
2023/01/24 03:54:56;;;;;;;10.70;6.87;;;1.60;99.90;;;;;;4767049;30;20315;-80
2023/01/24 03:57:23;;;;;;;11.17;6.83;;;1.60;99.90;;;;;;4767036;30;20189;-82
2023/01/24 03:59:49;;;;;;;14.20;7.67;;;1.60;99.90;;;;;;4766984;30;20532;-79
2023/01/24 04:02:15;;;;;;;11.97;7.77;;;1.60;99.90;;;;;;4753410;30;20216;-79
2023/01/24 04:07:26;;;;;;;12.43;6.70;;;1.60;99.90;;;;;;4753476;30;20180;-80
2023/01/24 04:09:51;;;;;;;10.33;6.67;;;1.60;99.90;;;;;;4753181;30;20189;-81
2023/01/24 04:12:17;;;;;;;9.67;6.40;;;1.60;99.90;;;;;;4770738;30;20538;-79
2023/01/24 04:14:43;;;;;;;11.13;5.97;;;1.60;99.90;;;;;;4769780;30;20216;-79
2023/01/24 04:17:09;;;;;;;9.03;6.43;;;1.60;99.90;;;;;;4769975;30;20191;-79
2023/01/24 04:19:35;;;;;;;11.67;6.40;;;1.60;99.90;;;;;;4771166;30;20675;-80
2023/01/24 04:22:01;;;;;;;6.80;4.27;;;1.60;99.90;;;;;;4771050;30;20184;-81
2023/01/24 04:24:27;;;;;;;7.03;4.30;;;1.60;99.90;;;;;;4770749;30;20515;-79
2023/01/24 04:26:52;;;;;;;7.27;5.07;;;1.60;99.90;;;;;;4770645;30;20186;-80
2023/01/24 04:29:18;;;;;;;8.17;5.10;;;1.60;99.90;;;;;;4770793;30;20271;-80
2023/01/24 04:31:44;;;;;;;8.03;5.17;;;1.70;99.90;;;;;;4770527;30;20191;-79
2023/01/24 04:34:09;;;;;;;5.07;3.43;;;1.60;99.90;;;;;;4770632;30;20306;-80
2023/01/24 04:36:35;;;;;;;4.87;3.50;;;1.60;99.90;;;;;;4770831;30;20188;-79
2023/01/24 04:39:01;;;;;;;5.10;3.10;;;1.60;99.90;;;;;;4770817;30;20192;-86
2023/01/24 04:41:26;;;;;;;4.63;2.83;;;1.60;99.90;;;;;;4770366;30;20300;-82
2023/01/24 04:43:52;;;;;;;4.90;3.20;;;1.60;99.90;;;;;;4770518;30;20635;-80
2023/01/24 04:46:18;;;;;;;4.83;3.27;;;1.60;99.90;;;;;;4770863;30;20184;-80
2023/01/24 04:48:43;;;;;;;6.50;3.70;;;1.60;99.90;;;;;;4770837;30;20275;-80
2023/01/24 04:51:09;;;;;;;6.13;3.77;;;1.50;99.90;;;;;;4770747;30;20184;-79
2023/01/24 04:53:38;;;;;;;5.70;3.83;;;1.60;99.90;;;;;;4769020;30;21008;-79
2023/01/24 04:56:05;;;;;;;5.27;3.53;;;1.60;99.90;;;;;;4769382;30;20184;-79
2023/01/24 04:58:32;;;;;;;5.90;3.73;;;1.60;99.90;;;;;;4770638;30;20203;-79
2023/01/24 05:00:57;;;;;;;6.00;3.67;;;1.60;99.90;;;;;;4770775;30;20185;-79
2023/01/24 05:03:23;;;;;;;4.53;3.07;;;1.60;99.90;;;;;;4770458;30;20184;-79
2023/01/24 05:05:50;;;;;;;4.57;3.03;;;1.60;99.90;;;;;;4770602;30;20267;-81
2023/01/24 05:08:16;;;;;;;3.10;2.50;;;1.60;99.90;;;;;;4770563;30;20184;-84
2023/01/24 05:10:41;;;;;;;3.60;3.00;;;1.60;99.90;;;;;;4764310;30;20196;-81
2023/01/24 05:13:07;;;;;;;4.80;3.20;;;1.60;99.90;;;;;;4751355;30;20212;-81
2023/01/24 05:15:33;;;;;;;5.17;2.77;;;1.60;99.90;;;;;;4752726;30;20212;-80
2023/01/24 05:17:59;;;;;;;3.40;2.33;;;1.60;99.90;;;;;;4752667;30;20188;-80
2023/01/24 05:20:24;;;;;;;3.90;2.33;;;1.60;99.90;;;;;;4752762;30;20679;-81
2023/01/24 05:22:50;;;;;;;4.00;2.73;;;1.60;99.90;;;;;;4757391;30;20188;-78
2023/01/24 05:25:16;;;;;;;3.57;2.60;;;1.50;99.90;;;;;;4783843;30;20235;-84
2023/01/24 05:27:42;;;;;;;3.43;2.70;;;1.50;99.90;;;;;;4770209;30;20184;-80
2023/01/24 05:30:09;;;;;;;3.20;2.30;;;1.50;99.90;;;;;;4770466;30;20304;-81
2023/01/24 05:32:34;;;;;;;4.23;2.63;;;1.50;99.90;;;;;;4770250;30;20176;-80
2023/01/24 05:35:00;;;;;;;4.03;3.13;;;1.50;99.90;;;;;;4770234;30;20265;-79
2023/01/24 05:37:26;;;;;;;4.33;2.93;;;1.50;99.90;;;;;;4783609;30;20200;-82
2023/01/24 05:39:51;;;;;;;3.40;2.60;;;1.50;99.90;;;;;;4770040;30;20244;-81
2023/01/24 05:42:17;;;;;;;4.67;2.37;;;1.40;99.90;;;;;;4769850;30;20283;-80
2023/01/24 05:44:43;;;;;;;4.70;2.57;;;1.40;99.90;;;;;;4772989;30;20674;-80
2023/01/24 05:47:09;;;;;;;4.63;2.93;;;1.40;99.90;;;;;;4772145;30;20853;-79
2023/01/24 05:49:34;;;;;;;4.00;3.00;;;1.40;99.90;;;;;;4773219;30;20184;-81
2023/01/24 05:52:00;;;;;;;3.53;2.70;;;1.40;99.90;;;;;;4773211;30;20196;-79
2023/01/24 05:54:27;;;;;;;3.80;2.80;;;1.40;99.90;;;;;;4772988;30;20266;-84
2023/01/24 05:56:53;;;;;;;4.73;3.30;;;1.40;99.90;;;;;;4772920;30;20620;-79
2023/01/24 05:59:18;;;;;;;4.53;2.90;;;1.40;99.90;;;;;;4785917;29;20257;-80
2023/01/24 06:01:44;;;;;;;3.87;2.97;;;1.40;99.90;;;;;;4773101;30;20263;-82
2023/01/24 06:04:10;;;;;;;4.27;3.17;;;1.40;99.90;;;;;;4786682;30;20736;-80
2023/01/24 06:06:36;;;;;;;3.70;2.60;;;1.40;99.90;;;;;;4773139;30;20324;-83
2023/01/24 06:09:01;;;;;;;3.90;2.50;;;1.40;99.90;;;;;;4772957;30;20183;-80
2023/01/24 06:11:28;;;;;;;3.63;2.77;;;1.40;99.90;;;;;;4772679;30;20207;-81
2023/01/24 06:13:55;;;;;;;3.63;2.90;;;1.40;99.90;;;;;;4771425;30;20220;-80
2023/01/24 06:16:23;;;;;;;4.10;3.13;;;1.40;99.90;;;;;;4771759;30;20180;-80
2023/01/24 06:18:50;;;;;;;4.77;3.27;;;1.40;99.90;;;;;;4772975;30;20180;-80
2023/01/24 06:21:31;;;;;;;6.43;2.90;;;1.40;99.90;;;;;;4772883;30;20704;-85
2023/01/24 06:23:57;;;;;;;4.70;2.93;;;1.40;99.90;;;;;;4772708;30;20255;-81
2023/01/24 06:26:23;;;;;;;4.50;3.37;;;1.40;99.90;;;;;;4772622;30;20176;-81
2023/01/24 06:28:50;;;;;;;4.57;3.10;;;1.40;99.90;;;;;;4772782;30;20180;-80
2023/01/24 06:31:49;;;;;;;3.67;2.63;;;1.40;99.90;;;;;;4772728;30;20647;-80
2023/01/24 06:34:32;;;;;;;4.70;3.50;;;1.30;99.90;;;;;;4772402;30;20264;-79
2023/01/24 06:37:14;;;;;;;4.47;3.40;;;1.30;99.90;;;;;;4772755;30;20187;-80
2023/01/24 06:39:49;;;;;;;4.10;3.17;;;1.30;99.90;;;;;;4772477;30;20234;-82
2023/01/24 06:42:17;;;;;;;4.07;3.00;;;1.30;99.90;;;;;;4772352;30;20277;-82
2023/01/24 06:44:43;;;;;;;5.23;3.57;;;1.30;99.90;;;;;;4772334;30;20180;-81
2023/01/24 06:47:12;;;;;;;5.90;3.53;;;1.30;99.90;;;;;;4772681;30;20232;-83
2023/01/24 06:49:38;;;;;;;5.40;4.07;;;1.30;99.90;;;;;;4772650;30;20242;-82
2023/01/24 06:52:04;;;;;;;5.77;4.13;;;1.30;99.90;;;;;;4772464;30;20215;-80
2023/01/24 06:54:30;;;;;;;6.07;4.63;;;1.30;99.90;;;;;;4771933;30;20255;-82
2023/01/24 06:56:56;;;;;;;6.13;4.70;;;1.30;99.90;;;;;;4772330;30;20172;-82
2023/01/24 06:59:22;;;;;;;5.57;4.00;;;1.30;99.90;;;;;;4771138;30;20262;-81
2023/01/24 07:01:51;;;;;;;6.87;4.13;;;1.30;99.90;;;;;;4772654;30;20180;-82
2023/01/24 07:04:17;;;;;;;6.97;4.33;;;1.30;99.90;;;;;;4772128;30;20263;-83
2023/01/24 07:06:43;;;;;;;5.77;4.10;;;1.30;99.90;;;;;;4771354;30;20184;-86
2023/01/24 07:09:09;;;;;;;6.03;4.07;;;1.20;99.90;;;;;;4771200;30;20211;-86
2023/01/24 07:11:35;;;;;;;6.93;4.40;;;1.20;99.90;;;;;;4772204;30;20719;-86
2023/01/24 07:14:01;;;;;;;5.00;4.10;;;1.30;99.90;;;;;;4772025;30;20660;-86
2023/01/24 07:16:27;;;;;;;4.90;3.73;;;1.30;99.90;;;;;;4772249;30;20211;-87
2023/01/24 07:18:54;;;;;;;5.60;3.77;;;1.30;99.90;;;;;;4772167;30;20655;-80
2023/01/24 07:21:20;;;;;;;5.47;3.57;;;1.30;99.90;;;;;;4771870;30;20192;-80
2023/01/24 07:23:48;;;;;;;5.30;3.90;;;1.30;99.90;;;;;;4771441;30;20191;-81
2023/01/24 07:26:15;;;;;;;5.67;4.10;;;1.30;99.90;;;;;;4785324;30;20242;-81
2023/01/24 07:28:41;;;;;;;5.47;3.80;;;1.30;99.90;;;;;;4771824;30;20199;-79
2023/01/24 07:31:07;;;;;;;5.53;3.90;;;1.30;99.90;;;;;;4785400;30;20616;-80
2023/01/24 07:33:33;;;;;;;4.77;3.10;;;1.20;99.90;;;;;;4771830;30;20184;-80
2023/01/24 07:35:59;;;;;;;6.17;4.10;;;1.20;99.90;;;;;;4771774;30;20537;-80
2023/01/24 07:38:25;;;;;;;6.40;4.10;;;1.20;99.90;;;;;;4771519;30;20252;-80
2023/01/24 07:40:51;;;;;;;5.87;4.03;;;1.20;99.90;;;;;;4771022;30;20251;-81
2023/01/24 07:43:19;;;;;;;4.80;3.53;;;1.20;99.90;;;;;;4771296;30;20518;-84
2023/01/24 07:45:46;;;;;;;5.10;3.90;;;1.30;99.90;;;;;;4771919;30;20195;-85
2023/01/24 07:48:12;;;;;;;5.90;3.93;;;1.20;99.90;;;;;;4771941;30;20184;-84
2023/01/24 07:50:37;;;;;;;5.53;4.07;;;1.20;99.90;;;;;;4772002;30;20263;-85
2023/01/24 07:53:05;;;;;;;4.43;3.53;;;1.20;99.90;;;;;;4771463;30;20249;-86
2023/01/24 07:55:31;;;;;;;4.23;3.37;;;1.20;99.90;;;;;;4771690;30;20218;-85
2023/01/24 07:57:59;;;;;;;5.00;3.50;;;1.20;99.90;;;;;;4770531;30;20597;-86
2023/01/24 08:00:25;;;;;;;4.90;3.53;;;1.20;99.90;;;;;;4771937;30;20219;-86
2023/01/24 08:02:51;;;;;;;4.77;3.70;;;1.20;99.90;;;;;;4771759;30;20211;-86
2023/01/24 08:05:17;;;;;;;5.17;3.83;;;1.20;99.90;;;;;;4770364;30;20206;-87
2023/01/24 08:07:42;;;;;;;5.20;4.07;;;1.10;99.90;;;;;;4770311;30;20275;-86
2023/01/24 08:10:08;;;;;;;5.33;4.00;;;1.20;99.90;;;;;;4771571;30;20192;-85
2023/01/24 08:12:34;;;;;;;5.47;4.07;;;1.10;99.90;;;;;;4771306;30;20307;-84
2023/01/24 08:15:01;;;;;;;5.17;3.67;;;1.20;99.90;;;;;;4771579;30;20251;-86
2023/01/24 08:17:27;;;;;;;5.90;3.93;;;1.20;99.90;;;;;;4771689;30;20636;-85
2023/01/24 08:19:52;;;;;;;6.17;3.37;;;1.20;99.90;;;;;;4771874;30;20192;-86
2023/01/24 08:22:18;;;;;;;5.43;3.30;;;1.10;99.90;;;;;;4771130;30;20613;-80
2023/01/24 08:24:45;;;;;;;4.73;3.60;;;1.20;99.90;;;;;;4770451;30;20188;-81
2023/01/24 08:27:11;;;;;;;3.90;3.30;;;1.20;99.90;;;;;;4755098;30;20196;-81
2023/01/24 08:30:18;;;;;;;4.03;3.10;;;1.20;99.90;;;;;;4756549;30;20261;-85
2023/01/24 08:32:44;;;;;;;4.47;2.70;;;1.20;99.90;;;;;;4770391;30;20237;-79
2023/01/24 08:35:09;;;;;;;4.23;3.27;;;1.20;99.90;;;;;;4770688;30;20232;-79
2023/01/24 08:37:36;;;;;;;4.83;3.20;;;1.20;99.90;;;;;;4771032;30;20203;-79
2023/01/24 08:40:03;;;;;;;5.73;3.30;;;1.20;99.90;;;;;;4783976;29;20250;-80
2023/01/24 08:42:29;;;;;;;4.70;3.40;;;1.20;99.90;;;;;;4770298;30;20198;-79
2023/01/24 08:44:55;;;;;;;4.63;3.43;;;1.20;99.90;;;;;;4770900;30;20636;-80
2023/01/24 08:47:20;;;;;;;4.60;3.80;;;1.20;99.90;;;;;;4770708;30;20169;-81
2023/01/24 08:49:46;;;;;;;5.33;3.40;;;1.20;99.90;;;;;;4770900;30;20204;-85
2023/01/24 08:52:12;;;;;;;3.60;2.97;;;1.20;99.90;;;;;;4770909;30;20625;-81
2023/01/24 08:54:38;;;;;;;4.47;3.03;;;1.10;99.90;;;;;;4770330;30;20216;-80
2023/01/24 08:57:06;;;;;;;5.90;3.60;;;1.10;99.90;;;;;;4770370;30;20176;-81
2023/01/24 08:59:32;;;;;;;4.07;3.10;;;1.10;99.90;;;;;;4770640;30;20178;-81
2023/01/24 09:01:58;;;;;;;3.90;3.00;;;1.10;99.90;;;;;;4770490;30;20518;-79
2023/01/24 09:04:26;;;;;;;4.13;3.33;;;1.10;99.90;;;;;;4769091;30;20196;-80
2023/01/24 09:06:52;;;;;;;5.60;3.83;;;1.20;99.90;;;;;;4770624;30;20168;-81
2023/01/24 09:09:17;;;;;;;4.63;3.67;;;1.10;99.90;;;;;;4770483;30;20188;-80
2023/01/24 09:11:43;;;;;;;3.90;3.00;;;1.10;99.90;;;;;;4769056;30;20202;-80
2023/01/24 09:14:09;;;;;;;4.70;3.33;;;1.20;99.90;;;;;;4770326;30;20203;-79
2023/01/24 09:16:35;;;;;;;3.63;2.90;;;1.20;99.90;;;;;;4770518;30;20192;-81
2023/01/24 09:19:01;;;;;;;4.60;3.10;;;1.20;99.90;;;;;;4772844;30;20203;-79
2023/01/24 09:21:26;;;;;;;5.50;3.23;;;1.30;99.90;;;;;;4774001;30;20191;-84
2023/01/24 09:23:56;;;;;;;5.30;4.00;;;1.20;99.90;;;;;;4773808;30;20191;-80
2023/01/24 09:26:24;;;;;;;5.60;3.90;;;1.30;99.90;;;;;;4773772;30;20199;-85
2023/01/24 09:28:50;;;;;;;4.00;3.10;;;1.30;99.90;;;;;;4774002;30;20680;-81
2023/01/24 09:31:16;;;;;;;5.63;3.37;;;1.30;99.90;;;;;;4773939;30;20276;-80
2023/01/24 09:33:42;;;;;;;5.77;3.80;;;1.30;99.90;;;;;;4773609;30;20531;-83
2023/01/24 09:36:10;;;;;;;6.10;3.97;;;1.30;99.90;;;;;;4773889;30;20194;-78
2023/01/24 09:38:35;;;;;;;6.23;4.10;;;1.40;99.90;;;;;;4773813;30;20319;-79
2023/01/24 09:41:21;;;;;;;4.73;3.60;;;1.40;99.90;;;;;;4773277;30;20318;-85
2023/01/24 09:43:58;;;;;;;5.37;3.73;;;1.40;99.90;;;;;;4773436;30;20169;-86
2023/01/24 09:46:27;;;;;;;20.20;11.40;;;1.40;99.90;;;;;;4773842;30;20665;-79
2023/01/24 09:49:05;;;;;;;9.10;5.73;;;1.40;99.90;;;;;;4773782;30;20601;-80
2023/01/24 09:51:36;;;;;;;7.97;4.77;;;1.40;99.90;;;;;;4773471;30;20184;-79
2023/01/24 09:54:05;;;;;;;6.20;4.53;;;1.40;99.90;;;;;;4773218;30;20215;-84
2023/01/24 09:56:36;;;;;;;10.63;5.20;;;1.30;99.90;;;;;;4772025;30;20289;-81
2023/01/24 09:59:14;;;;;;;8.40;5.50;;;1.30;99.90;;;;;;4773442;30;20177;-86
2023/01/24 10:01:40;;;;;;;6.90;4.60;;;1.30;99.90;;;;;;4773524;30;20236;-79
2023/01/24 10:04:38;;;;;;;7.10;4.87;;;1.30;99.90;;;;;;4773223;30;20321;-84
2023/01/24 10:07:25;;;;;;;9.43;5.23;;;1.20;99.90;;;;;;4771959;30;20208;-79
2023/01/24 10:10:23;;;;;;;7.80;6.20;;;1.30;99.90;;;;;;4773218;30;20180;-80
2023/01/24 10:12:52;;;;;;;7.37;4.73;;;1.30;99.90;;;;;;4772972;30;20179;-81
2023/01/24 10:15:48;;;;;;;7.57;4.97;;;1.40;99.90;;;;;;4773218;30;20230;-82
2023/01/24 10:18:35;;;;;;;5.47;4.40;;;1.40;99.90;;;;;;4773167;30;20258;-85
2023/01/24 10:21:16;;;;;;;6.67;4.47;;;1.40;99.90;;;;;;4773267;30;20180;-81
2023/01/24 10:23:46;;;;;;;6.63;4.60;;;1.50;99.90;;;;;;4772890;30;20184;-85
2023/01/24 10:26:19;;;;;;;6.17;4.20;;;1.50;99.90;;;;;;4771532;30;20180;-83
2023/01/24 10:28:50;;;;;;;6.37;4.60;;;1.50;99.90;;;;;;4772498;30;20288;-86
2023/01/24 10:31:30;;;;;;;7.13;5.23;;;1.50;99.90;;;;;;4771742;30;20693;-81
2023/01/24 10:34:18;;;;;;;6.97;4.70;;;1.50;99.90;;;;;;4772593;30;20262;-82
2023/01/24 10:36:47;;;;;;;7.53;4.90;;;1.60;99.90;;;;;;4773028;30;20551;-83
2023/01/24 10:39:13;;;;;;;7.47;5.33;;;1.60;99.90;;;;;;4772769;30;20172;-83
2023/01/24 10:41:39;;;;;;;7.10;5.10;;;1.60;99.90;;;;;;4772357;30;20246;-84
2023/01/24 10:44:14;;;;;;;8.63;5.63;;;1.70;99.90;;;;;;4772510;30;20191;-82
2023/01/24 10:47:06;;;;;;;7.17;5.20;;;1.70;99.90;;;;;;4772751;30;20638;-83
2023/01/24 10:49:36;;;;;;;7.27;4.93;;;1.70;99.90;;;;;;4772611;30;20181;-85
2023/01/24 10:52:19;;;;;;;6.97;5.03;;;1.70;99.90;;;;;;4772704;30;20693;-85
2023/01/24 10:55:01;;;;;;;7.27;4.83;;;1.60;99.90;;;;;;4771372;30;20230;-84
2023/01/24 10:57:32;;;;;;;6.37;4.83;;;1.70;99.90;;;;;;4772333;30;20225;-83
2023/01/24 11:00:18;;;;;;;8.23;5.03;;;1.70;99.90;;;;;;4772613;30;20259;-81
2023/01/24 11:02:49;;;;;;;6.87;5.00;;;1.60;99.90;;;;;;4771263;30;20636;-82
2023/01/24 11:05:16;;;;;;;9.67;5.17;;;1.60;99.90;;;;;;4772326;30;20172;-84
2023/01/24 11:07:48;;;;;;;6.27;4.60;;;1.70;99.90;;;;;;4772598;30;20699;-85
2023/01/24 11:10:16;;;;;;;7.60;5.03;;;1.70;99.90;;;;;;4772411;30;20517;-80
2023/01/24 11:12:59;;;;;;;7.17;4.87;;;1.70;99.90;;;;;;4771871;30;20184;-82
2023/01/24 11:15:28;;;;;;;5.77;4.40;;;1.70;99.90;;;;;;4771910;30;20212;-81
2023/01/24 11:17:59;;;;;;;7.43;4.20;;;1.70;99.90;;;;;;4772578;30;20169;-83
2023/01/24 11:20:34;;;;;;;4.83;3.83;;;1.90;99.90;;;;;;4772189;30;20191;-82
2023/01/24 11:23:11;;;;;;;6.37;4.70;;;1.80;99.90;;;;;;4771959;30;20211;-80
2023/01/24 11:26:01;;;;;;;6.93;4.50;;;1.70;99.90;;;;;;4785987;30;20199;-84
2023/01/24 11:28:35;;;;;;;6.27;4.23;;;1.70;99.90;;;;;;4772091;30;20164;-85
2023/01/24 11:31:20;;;;;;;6.87;4.77;;;1.60;99.90;;;;;;4785939;30;20225;-81
2023/01/24 11:34:04;;;;;;;6.70;5.20;;;1.60;99.90;;;;;;4771883;30;20175;-79
2023/01/24 11:36:54;;;;;;;9.13;5.70;;;1.70;99.90;;;;;;4772076;30;20206;-82
2023/01/24 11:39:49;;;;;;;8.60;5.90;;;1.70;99.90;;;;;;4771882;30;20303;-82
2023/01/24 11:42:21;;;;;;;7.97;5.90;;;1.70;99.90;;;;;;4770734;30;20214;-82
2023/01/24 11:45:10;;;;;;;8.07;5.40;;;1.70;99.90;;;;;;4771495;30;20179;-80
2023/01/24 11:48:03;;;;;;;8.30;6.00;;;1.70;99.90;;;;;;4770879;30;20617;-84
2023/01/24 11:50:57;;;;;;;10.70;6.73;;;1.80;99.90;;;;;;4770303;30;20407;-82
2023/01/24 11:53:32;;;;;;;8.80;6.43;;;1.80;99.90;;;;;;4771088;30;20518;-82
2023/01/24 11:56:07;;;;;;;11.17;7.10;;;1.70;99.90;;;;;;4771137;30;20218;-80
2023/01/24 11:58:54;;;;;;;17.07;8.47;;;1.70;99.90;;;;;;4769728;30;20191;-81
2023/01/24 12:01:46;;;;;;;12.73;7.30;;;1.70;99.90;;;;;;4770841;30;20177;-80
2023/01/24 12:04:19;;;;;;;26.87;9.67;;;1.80;99.90;;;;;;4770681;30;20207;-81
2023/01/24 12:07:11;;;;;;;9.63;5.80;;;1.80;99.90;;;;;;4771193;30;20176;-81
2023/01/24 12:10:03;;;;;;;8.73;5.00;;;1.80;99.90;;;;;;4770976;30;20176;-82
2023/01/24 12:12:44;;;;;;;9.70;4.67;;;1.80;99.90;;;;;;4769554;30;20200;-82
2023/01/24 12:15:34;;;;;;;6.73;4.63;;;1.80;99.90;;;;;;4770930;30;20207;-79
2023/01/24 12:18:20;;;;;;;7.30;4.93;;;1.80;99.90;;;;;;4771063;30;20176;-81
2023/01/24 12:20:55;;;;;;;8.87;5.60;;;1.80;99.90;;;;;;4752912;30;20269;-82
2023/01/24 12:23:34;;;;;;;6.57;4.60;;;1.80;99.90;;;;;;4753040;30;20274;-84
2023/01/24 12:26:12;;;;;;;7.50;4.87;;;1.80;99.90;;;;;;4753398;30;20176;-85
2023/01/24 12:28:51;;;;;;;8.37;5.80;;;1.80;99.90;;;;;;4753061;30;20191;-82
2023/01/24 12:31:26;;;;;;;6.97;4.77;;;1.80;99.90;;;;;;4766853;30;20188;-82
2023/01/24 12:34:00;;;;;;;6.43;4.87;;;1.80;99.90;;;;;;4752870;30;20164;-84
2023/01/24 12:36:51;;;;;;;6.60;4.57;;;1.80;99.90;;;;;;4753110;30;20552;-80
2023/01/24 12:39:20;;;;;;;7.13;4.07;;;1.80;99.90;;;;;;4753159;30;20679;-82
2023/01/24 12:41:59;;;;;;;7.97;4.60;;;1.90;99.90;;;;;;4766645;30;20255;-82
2023/01/24 12:44:41;;;;;;;6.93;4.23;;;1.90;99.90;;;;;;4770591;30;20172;-80
2023/01/24 12:47:37;;;;;;;8.77;4.67;;;1.90;99.90;;;;;;4784438;29;20196;-82
2023/01/24 12:50:51;;;;;;;8.07;4.27;;;1.90;99.90;;;;;;4770786;30;20226;-81
2023/01/24 12:53:55;;;;;;;6.40;3.97;;;2.00;99.90;;;;;;4770320;30;20587;-82
2023/01/24 12:56:27;;;;;;;5.43;3.47;;;2.00;99.90;;;;;;4773028;30;20207;-82
2023/01/24 12:58:55;;;;;;;7.47;4.77;;;2.00;99.90;;;;;;4772983;30;20530;-81
2023/01/24 13:01:27;;;;;;;3.63;2.83;;;2.00;99.90;;;;;;4773130;30;20191;-84
2023/01/24 13:04:17;;;;;;;4.20;2.40;;;2.00;99.90;;;;;;4773095;30;20188;-85
2023/01/24 13:07:30;;;;;;;2.67;2.00;;;2.00;99.90;;;;;;4774555;30;20183;-82
2023/01/24 13:10:17;;;;;;;3.30;2.17;;;2.00;99.90;;;;;;4755048;30;20275;-82
2023/01/24 13:12:45;;;;;;;4.63;2.43;;;2.00;99.90;;;;;;4773059;30;20532;-83
2023/01/24 13:15:17;;;;;;;3.53;2.33;;;2.00;99.90;;;;;;4774394;30;20219;-82
2023/01/24 13:18:08;;;;;;;4.83;2.53;;;2.00;99.90;;;;;;4774170;30;20172;-81
2023/01/24 13:21:18;;;;;;;3.37;2.57;;;2.00;99.90;;;;;;4774309;30;20176;-81
2023/01/24 13:24:21;;;;;;;3.63;2.80;;;2.00;99.90;;;;;;4772047;30;20200;-81
2023/01/24 13:26:59;;;;;;;5.77;3.30;;;2.00;99.90;;;;;;4757662;30;20192;-85
2023/01/24 13:30:02;;;;;;;6.00;3.40;;;1.90;99.90;;;;;;4774182;30;20613;-85
2023/01/24 13:32:30;;;;;;;6.07;3.50;;;1.90;99.90;;;;;;4773981;30;20498;-85
2023/01/24 13:34:58;;;;;;;5.27;3.13;;;1.90;99.90;;;;;;4774188;30;20712;-86
2023/01/24 13:37:34;;;;;;;4.03;3.03;;;1.90;99.90;;;;;;4774378;30;20241;-86
2023/01/24 13:40:23;;;;;;;5.87;3.47;;;1.80;99.90;;;;;;4772865;30;20230;-85
2023/01/24 13:42:49;;;;;;;7.57;3.80;;;1.80;99.90;;;;;;4755943;30;20184;-86
2023/01/24 13:45:30;;;;;;;6.73;3.63;;;1.80;99.90;;;;;;4755055;30;20273;-86
2023/01/24 13:47:58;;;;;;;5.00;3.53;;;1.80;99.90;;;;;;4756243;30;20169;-86
2023/01/24 13:50:26;;;;;;;6.53;4.10;;;1.80;99.90;;;;;;4756319;30;20177;-84